Time;durP1;ratioP1;P1;durP2;ratioP2;P2;SDS_P1;SDS_P2;PMS_P1;PMS_P2;Temp;Humidity;BMP_temperature;BMP_pressure;BME280_temperature;BME280_humidity;BME280_pressure;Samples;Min_cycle;Max_cycle;Signal;HPM_P1;HPM_P2
2023/06/20 00:00:18;;;;;;;16.50;10.73;;;;;;;;;;4951173;29;20044;-59
2023/06/20 00:02:44;;;;;;;14.23;10.23;;;;;;;;;;4951470;29;20519;-60
2023/06/20 00:05:10;;;;;;;13.63;10.33;;;;;;;;;;4951169;29;20067;-60
2023/06/20 00:07:36;;;;;;;14.57;10.43;;;;;;;;;;4951334;29;20086;-60
2023/06/20 00:10:02;;;;;;;12.97;10.50;;;;;;;;;;4950999;29;20058;-60
2023/06/20 00:12:28;;;;;;;17.63;10.77;;;;;;;;;;4951371;29;20051;-60
2023/06/20 00:14:55;;;;;;;15.60;10.63;;;;;;;;;;4951137;29;20039;-60
2023/06/20 00:17:21;;;;;;;15.67;10.87;;;;;;;;;;4950301;29;20051;-59
2023/06/20 00:19:47;;;;;;;16.90;10.20;;;;;;;;;;4951073;29;20070;-60
2023/06/20 00:22:13;;;;;;;15.50;10.97;;;;;;;;;;4950570;29;20221;-60
2023/06/20 00:24:39;;;;;;;13.20;10.40;;;;;;;;;;4950934;29;20047;-59
2023/06/20 00:27:05;;;;;;;14.63;11.07;;;;;;;;;;4950863;29;20054;-59
2023/06/20 00:29:31;;;;;;;13.97;10.53;;;;;;;;;;4951039;29;20055;-59
2023/06/20 00:31:57;;;;;;;14.50;10.03;;;;;;;;;;4950801;29;20074;-59
2023/06/20 00:34:23;;;;;;;16.30;10.90;;;;;;;;;;4950645;29;20079;-59
2023/06/20 00:36:49;;;;;;;13.20;8.87;;;;;;;;;;4950602;29;20051;-59
2023/06/20 00:39:16;;;;;;;12.20;8.83;;;;;;;;;;4950287;29;20051;-59
2023/06/20 00:41:42;;;;;;;15.43;8.50;;;;;;;;;;4951000;29;20125;-59
2023/06/20 00:44:08;;;;;;;10.67;7.93;;;;;;;;;;4953363;28;20051;-59
2023/06/20 00:46:37;;;;;;;12.80;9.00;;;;;;;;;;4954580;29;20050;-60
2023/06/20 00:49:05;;;;;;;12.37;8.80;;;;;;;;;;4954144;29;20043;-59
2023/06/20 00:51:31;;;;;;;14.40;9.23;;;;;;;;;;4954225;29;20066;-59
2023/06/20 00:53:57;;;;;;;13.77;9.20;;;;;;;;;;4953702;29;20101;-59
2023/06/20 00:56:26;;;;;;;14.87;8.90;;;;;;;;;;4954050;29;20051;-59
2023/06/20 00:58:52;;;;;;;12.53;8.47;;;;;;;;;;4953603;29;20498;-59
2023/06/20 01:01:19;;;;;;;10.33;8.20;;;;;;;;;;4953795;29;20141;-59
2023/06/20 01:03:48;;;;;;;13.63;9.53;;;;;;;;;;4954618;29;20051;-59
2023/06/20 01:06:32;;;;;;;12.73;8.23;;;;;;;;;;4953687;29;20043;-60
2023/06/20 01:09:18;;;;;;;12.93;9.50;;;;;;;;;;4968284;28;20257;-59
2023/06/20 01:11:53;;;;;;;11.80;8.77;;;;;;;;;;4972467;28;20094;-59
2023/06/20 01:14:45;;;;;;;14.97;9.30;;;;;;;;;;4972800;28;20046;-59
2023/06/20 01:17:34;;;;;;;12.33;8.70;;;;;;;;;;4972968;28;20516;-59
2023/06/20 01:20:09;;;;;;;15.10;9.07;;;;;;;;;;4962850;28;20125;-59
2023/06/20 01:22:38;;;;;;;11.73;8.63;;;;;;;;;;4972507;28;20047;-60
2023/06/20 01:25:06;;;;;;;13.40;9.17;;;;;;;;;;4972340;28;20062;-61
2023/06/20 01:27:36;;;;;;;16.70;10.20;;;;;;;;;;4972865;28;20082;-60
2023/06/20 01:30:08;;;;;;;14.80;10.03;;;;;;;;;;4972672;28;20043;-61
2023/06/20 01:32:37;;;;;;;11.77;10.17;;;;;;;;;;4967182;28;20047;-60
2023/06/20 01:35:07;;;;;;;13.63;9.73;;;;;;;;;;4952866;29;20677;-60
2023/06/20 01:37:35;;;;;;;15.83;11.13;;;;;;;;;;4952977;29;20047;-60
2023/06/20 01:40:04;;;;;;;13.27;9.43;;;;;;;;;;4954063;28;20051;-60
2023/06/20 01:42:30;;;;;;;11.90;9.40;;;;;;;;;;4966825;28;20466;-60
2023/06/20 01:44:57;;;;;;;10.73;9.53;;;;;;;;;;4952564;29;20051;-60
2023/06/20 01:47:24;;;;;;;15.67;10.47;;;;;;;;;;4956933;28;20110;-60
2023/06/20 01:49:51;;;;;;;12.80;9.97;;;;;;;;;;4972328;28;20046;-60
2023/06/20 01:52:18;;;;;;;14.90;11.77;;;;;;;;;;4972457;28;20046;-60
2023/06/20 01:54:48;;;;;;;16.93;10.33;;;;;;;;;;4971350;28;20049;-60
2023/06/20 01:57:16;;;;;;;15.90;11.17;;;;;;;;;;4970872;28;20047;-60
2023/06/20 01:59:43;;;;;;;16.67;11.53;;;;;;;;;;4969932;28;20046;-60
2023/06/20 02:02:09;;;;;;;14.80;11.07;;;;;;;;;;4952932;29;20051;-60
2023/06/20 02:04:35;;;;;;;18.80;11.60;;;;;;;;;;4952916;29;20075;-60
2023/06/20 02:07:05;;;;;;;13.77;11.30;;;;;;;;;;4953669;28;20477;-60
2023/06/20 02:09:32;;;;;;;15.70;11.53;;;;;;;;;;4971761;28;20054;-60
2023/06/20 02:11:58;;;;;;;17.77;11.93;;;;;;;;;;4972442;28;20494;-60
2023/06/20 02:14:25;;;;;;;17.20;11.87;;;;;;;;;;4971815;28;20061;-60
2023/06/20 02:16:51;;;;;;;16.07;12.20;;;;;;;;;;4972373;28;20102;-60
2023/06/20 02:19:17;;;;;;;17.13;12.80;;;;;;;;;;4971532;28;20058;-60
2023/06/20 02:21:45;;;;;;;17.77;12.17;;;;;;;;;;4971375;28;20540;-60
2023/06/20 02:24:13;;;;;;;16.90;13.20;;;;;;;;;;4970916;28;20413;-60
2023/06/20 02:26:41;;;;;;;16.47;12.53;;;;;;;;;;4972042;28;20038;-60
2023/06/20 02:29:08;;;;;;;19.43;13.80;;;;;;;;;;4971691;28;20079;-60
2023/06/20 02:31:37;;;;;;;18.80;13.90;;;;;;;;;;4971541;28;20170;-60
2023/06/20 02:34:05;;;;;;;17.50;13.07;;;;;;;;;;4971437;28;20047;-61
2023/06/20 02:36:31;;;;;;;14.73;12.57;;;;;;;;;;4971209;28;20533;-60
2023/06/20 02:38:58;;;;;;;16.47;13.93;;;;;;;;;;4970485;28;20053;-60
2023/06/20 02:41:24;;;;;;;17.10;13.77;;;;;;;;;;4971346;28;20043;-60
2023/06/20 02:43:51;;;;;;;21.57;14.57;;;;;;;;;;4971856;28;20082;-60
2023/06/20 02:46:26;;;;;;;18.07;13.53;;;;;;;;;;4970708;28;20082;-60
2023/06/20 02:49:05;;;;;;;22.73;13.97;;;;;;;;;;4970363;28;20051;-60
2023/06/20 02:51:34;;;;;;;19.63;15.30;;;;;;;;;;4971333;28;20042;-60
2023/06/20 02:54:03;;;;;;;20.37;14.27;;;;;;;;;;4971345;28;20091;-60
2023/06/20 02:56:31;;;;;;;20.20;14.53;;;;;;;;;;4970669;28;20050;-60
2023/06/20 02:58:57;;;;;;;19.87;14.50;;;;;;;;;;4970998;28;20417;-60
2023/06/20 03:01:25;;;;;;;19.90;14.50;;;;;;;;;;4970927;28;20493;-60
2023/06/20 03:03:53;;;;;;;21.80;15.90;;;;;;;;;;4970804;28;20043;-61
2023/06/20 03:06:26;;;;;;;20.13;16.53;;;;;;;;;;4970839;28;20085;-60
2023/06/20 03:08:53;;;;;;;18.80;14.67;;;;;;;;;;4970877;28;20138;-60
2023/06/20 03:11:19;;;;;;;17.20;14.83;;;;;;;;;;4970753;28;20051;-60
2023/06/20 03:13:45;;;;;;;20.23;14.50;;;;;;;;;;4969756;28;20080;-60
2023/06/20 03:16:12;;;;;;;17.63;15.00;;;;;;;;;;4971045;28;20043;-60
2023/06/20 03:18:38;;;;;;;18.83;15.97;;;;;;;;;;4970534;28;20071;-61
2023/06/20 03:21:05;;;;;;;20.43;15.43;;;;;;;;;;4970467;28;20051;-60
2023/06/20 03:23:31;;;;;;;17.87;14.10;;;;;;;;;;4970820;28;20042;-61
2023/06/20 03:25:57;;;;;;;17.97;15.17;;;;;;;;;;4970782;28;20043;-60
2023/06/20 03:28:24;;;;;;;18.63;15.40;;;;;;;;;;4970133;28;20429;-61
2023/06/20 03:30:50;;;;;;;19.13;16.07;;;;;;;;;;4952915;28;20433;-61
2023/06/20 03:33:16;;;;;;;19.50;16.00;;;;;;;;;;4969835;28;20042;-60
2023/06/20 03:35:42;;;;;;;19.90;15.30;;;;;;;;;;4969457;28;20598;-60
2023/06/20 03:38:08;;;;;;;18.57;16.17;;;;;;;;;;4969882;28;20090;-61
2023/06/20 03:40:34;;;;;;;24.20;16.47;;;;;;;;;;4970090;28;20058;-61
2023/06/20 03:43:00;;;;;;;19.93;15.13;;;;;;;;;;4969948;28;20117;-60
2023/06/20 03:45:26;;;;;;;18.87;15.30;;;;;;;;;;4970107;28;20142;-61
2023/06/20 03:47:52;;;;;;;20.37;16.00;;;;;;;;;;4969647;28;20559;-61
2023/06/20 03:50:18;;;;;;;16.57;14.37;;;;;;;;;;4970080;28;20042;-60
2023/06/20 03:52:44;;;;;;;17.83;14.37;;;;;;;;;;4969837;28;20086;-60
2023/06/20 03:55:10;;;;;;;21.80;15.17;;;;;;;;;;4969791;28;20073;-60
2023/06/20 03:57:36;;;;;;;18.03;15.00;;;;;;;;;;4970133;28;20101;-60
2023/06/20 04:00:12;;;;;;;26.47;15.60;;;;;;;;;;4969383;28;20381;-61
2023/06/20 04:02:41;;;;;;;19.97;15.20;;;;;;;;;;4968223;28;20117;-60
2023/06/20 04:05:08;;;;;;;19.80;14.80;;;;;;;;;;4969628;28;20051;-60
2023/06/20 04:07:34;;;;;;;22.83;15.83;;;;;;;;;;4969748;28;20058;-60
2023/06/20 04:10:01;;;;;;;19.23;16.17;;;;;;;;;;4969792;28;20051;-61
2023/06/20 04:12:27;;;;;;;18.00;14.33;;;;;;;;;;4969700;28;20432;-60
2023/06/20 04:14:53;;;;;;;25.30;16.50;;;;;;;;;;4969328;28;20049;-61
2023/06/20 04:17:20;;;;;;;23.33;15.77;;;;;;;;;;4969312;28;20122;-61
2023/06/20 04:19:46;;;;;;;21.40;15.30;;;;;;;;;;4969613;28;20081;-60
2023/06/20 04:22:12;;;;;;;17.83;14.13;;;;;;;;;;4969379;28;20097;-60
2023/06/20 04:24:38;;;;;;;16.13;13.73;;;;;;;;;;4969059;28;20097;-61
2023/06/20 04:27:04;;;;;;;17.50;14.17;;;;;;;;;;4969572;28;20046;-61
2023/06/20 04:29:30;;;;;;;19.60;15.00;;;;;;;;;;4968834;28;20420;-60
2023/06/20 04:31:57;;;;;;;18.03;13.43;;;;;;;;;;4968690;28;20097;-60
2023/06/20 04:34:24;;;;;;;17.03;13.07;;;;;;;;;;4969557;28;20046;-60
2023/06/20 04:36:51;;;;;;;17.20;13.60;;;;;;;;;;4969439;28;20152;-61
2023/06/20 04:39:17;;;;;;;19.57;13.70;;;;;;;;;;4968962;28;20094;-61
2023/06/20 04:41:43;;;;;;;18.80;13.53;;;;;;;;;;4968900;28;20093;-60
2023/06/20 04:44:09;;;;;;;17.00;12.73;;;;;;;;;;4969542;28;20062;-60
2023/06/20 04:46:35;;;;;;;24.07;14.33;;;;;;;;;;4969186;28;20515;-60
2023/06/20 04:49:01;;;;;;;16.33;13.13;;;;;;;;;;4969316;28;20042;-60
2023/06/20 04:51:27;;;;;;;15.83;13.03;;;;;;;;;;4968826;28;20046;-61
2023/06/20 04:53:53;;;;;;;18.47;12.83;;;;;;;;;;4968809;28;20323;-60
2023/06/20 04:56:20;;;;;;;14.83;13.23;;;;;;;;;;4969008;28;20046;-61
2023/06/20 04:58:46;;;;;;;19.93;13.50;;;;;;;;;;4968186;28;20047;-61
2023/06/20 05:01:14;;;;;;;18.40;13.13;;;;;;;;;;4969347;28;20052;-60
2023/06/20 05:03:42;;;;;;;16.77;13.03;;;;;;;;;;4967681;28;20113;-61
2023/06/20 05:06:08;;;;;;;15.60;12.90;;;;;;;;;;4969268;28;20051;-61
2023/06/20 05:08:34;;;;;;;19.20;13.93;;;;;;;;;;4968902;28;20401;-61
2023/06/20 05:11:00;;;;;;;19.43;13.77;;;;;;;;;;4969055;28;20059;-61
2023/06/20 05:13:25;;;;;;;18.60;14.40;;;;;;;;;;4969426;28;20106;-61
2023/06/20 05:15:51;;;;;;;16.53;12.33;;;;;;;;;;4968910;28;20121;-60
2023/06/20 05:18:17;;;;;;;18.17;13.90;;;;;;;;;;4969160;28;20089;-60
2023/06/20 05:20:43;;;;;;;17.50;13.33;;;;;;;;;;4958844;28;20086;-61
2023/06/20 05:23:09;;;;;;;19.33;13.70;;;;;;;;;;4948544;28;20036;-61
2023/06/20 05:25:37;;;;;;;17.07;13.43;;;;;;;;;;4966592;28;20046;-61
2023/06/20 05:28:03;;;;;;;16.93;13.43;;;;;;;;;;4965699;28;20055;-61
2023/06/20 05:30:28;;;;;;;20.20;13.67;;;;;;;;;;4949769;28;20074;-61
2023/06/20 05:32:55;;;;;;;18.87;14.17;;;;;;;;;;4962382;28;20432;-61
2023/06/20 05:35:21;;;;;;;16.30;13.07;;;;;;;;;;4972529;28;20050;-61
2023/06/20 05:37:49;;;;;;;18.33;12.87;;;;;;;;;;4971648;28;20051;-61
2023/06/20 05:40:15;;;;;;;14.87;12.53;;;;;;;;;;4966692;28;20059;-60
2023/06/20 05:42:41;;;;;;;18.03;13.30;;;;;;;;;;4951737;28;20039;-61
2023/06/20 05:45:08;;;;;;;14.13;12.47;;;;;;;;;;4952755;29;20571;-61
2023/06/20 05:47:34;;;;;;;19.70;13.43;;;;;;;;;;4952701;29;20039;-60
2023/06/20 05:50:00;;;;;;;15.43;13.00;;;;;;;;;;4951990;28;20086;-60
2023/06/20 05:52:26;;;;;;;18.23;12.77;;;;;;;;;;4950259;28;20130;-61
2023/06/20 05:54:55;;;;;;;14.53;12.33;;;;;;;;;;4951736;29;20126;-61
2023/06/20 05:57:21;;;;;;;13.03;11.50;;;;;;;;;;4952300;29;20047;-61
2023/06/20 05:59:47;;;;;;;16.73;12.73;;;;;;;;;;4952200;29;20039;-61
2023/06/20 06:02:15;;;;;;;16.00;12.37;;;;;;;;;;4952559;29;20106;-61
2023/06/20 06:04:43;;;;;;;14.97;12.60;;;;;;;;;;4952835;29;20126;-61
2023/06/20 06:07:10;;;;;;;17.73;12.47;;;;;;;;;;4952351;28;20118;-61
2023/06/20 06:09:36;;;;;;;15.53;12.73;;;;;;;;;;4952001;29;20414;-61
2023/06/20 06:12:02;;;;;;;14.87;12.23;;;;;;;;;;4952541;29;20047;-61
2023/06/20 06:14:28;;;;;;;14.73;13.13;;;;;;;;;;4952434;29;20047;-61
2023/06/20 06:16:54;;;;;;;13.90;12.40;;;;;;;;;;4952322;29;20082;-61
2023/06/20 06:19:21;;;;;;;15.47;12.13;;;;;;;;;;4952709;29;20051;-61
2023/06/20 06:21:47;;;;;;;15.67;12.50;;;;;;;;;;4952441;29;20099;-61
2023/06/20 06:24:13;;;;;;;16.27;12.50;;;;;;;;;;4952508;29;20458;-61
2023/06/20 06:26:39;;;;;;;14.07;11.60;;;;;;;;;;4952266;29;20168;-61
2023/06/20 06:29:05;;;;;;;14.53;11.40;;;;;;;;;;4952285;29;20061;-61
2023/06/20 06:31:33;;;;;;;14.97;12.33;;;;;;;;;;4952199;29;20047;-61
2023/06/20 06:34:01;;;;;;;15.07;12.63;;;;;;;;;;4951287;29;20476;-61
2023/06/20 06:36:29;;;;;;;15.17;11.27;;;;;;;;;;4952178;29;20053;-61
2023/06/20 06:38:55;;;;;;;14.50;11.40;;;;;;;;;;4951766;29;20061;-61
2023/06/20 06:41:21;;;;;;;16.77;12.07;;;;;;;;;;4951632;28;20130;-60
2023/06/20 06:43:47;;;;;;;14.23;12.73;;;;;;;;;;4951835;29;20058;-61
2023/06/20 06:46:14;;;;;;;13.83;11.20;;;;;;;;;;4951599;29;20047;-61
2023/06/20 06:48:40;;;;;;;12.87;11.20;;;;;;;;;;4951404;29;20095;-61
2023/06/20 06:51:06;;;;;;;15.63;11.33;;;;;;;;;;4951596;29;20047;-61
2023/06/20 06:53:32;;;;;;;19.87;11.90;;;;;;;;;;4951171;29;20043;-61
2023/06/20 06:55:58;;;;;;;15.20;11.53;;;;;;;;;;4951414;29;20051;-61
2023/06/20 06:58:24;;;;;;;14.57;11.37;;;;;;;;;;4950308;29;20054;-61
2023/06/20 07:00:50;;;;;;;14.13;12.10;;;;;;;;;;4950834;29;20101;-61
2023/06/20 07:03:16;;;;;;;15.83;12.37;;;;;;;;;;4951695;29;20151;-61
2023/06/20 07:05:42;;;;;;;13.80;11.87;;;;;;;;;;4947881;28;20043;-61
2023/06/20 07:08:08;;;;;;;13.93;11.43;;;;;;;;;;4961840;28;20509;-61
2023/06/20 07:10:34;;;;;;;13.30;11.17;;;;;;;;;;4958815;28;20063;-61
2023/06/20 07:13:00;;;;;;;12.87;11.53;;;;;;;;;;4969233;28;20089;-61
2023/06/20 07:15:27;;;;;;;13.50;12.10;;;;;;;;;;4969541;28;20130;-61
2023/06/20 07:17:53;;;;;;;15.03;11.50;;;;;;;;;;4953710;28;20117;-61
2023/06/20 07:20:19;;;;;;;13.73;11.20;;;;;;;;;;4970800;28;20534;-60
2023/06/20 07:22:45;;;;;;;14.33;11.03;;;;;;;;;;4970669;28;20117;-61
2023/06/20 07:25:12;;;;;;;14.70;12.00;;;;;;;;;;4971021;28;20054;-61
2023/06/20 07:27:38;;;;;;;14.20;12.43;;;;;;;;;;4971082;28;20126;-61
2023/06/20 07:30:04;;;;;;;14.23;11.55;;;;;;;;;;4970817;28;20061;-61
2023/06/20 07:32:30;;;;;;;18.03;12.50;;;;;;;;;;4970673;28;20050;-61
2023/06/20 07:34:56;;;;;;;14.33;11.57;;;;;;;;;;4970184;28;20031;-61
2023/06/20 07:37:22;;;;;;;14.45;10.77;;;;;;;;;;4971238;28;20276;-61
2023/06/20 07:39:48;;;;;;;14.20;9.85;;;;;;;;;;4970844;28;20053;-61
2023/06/20 07:42:14;;;;;;;15.52;11.82;;;;;;;;;;4970911;28;20082;-61
2023/06/20 07:44:40;;;;;;;14.45;12.00;;;;;;;;;;4967647;28;20049;-61
2023/06/20 07:47:06;;;;;;;14.80;11.68;;;;;;;;;;4968812;28;20047;-61
2023/06/20 07:49:32;;;;;;;15.45;11.13;;;;;;;;;;4970679;28;20047;-61
2023/06/20 07:51:58;;;;;;;13.23;11.88;;;;;;;;;;4967806;28;20057;-61
2023/06/20 07:54:25;;;;;;;14.10;12.30;;;;;;;;;;4969930;28;20053;-61
2023/06/20 07:56:51;;;;;;;14.48;12.52;;;;;;;;;;4969762;28;20070;-61
2023/06/20 07:59:17;;;;;;;12.40;11.20;;;;;;;;;;4969952;28;20062;-61
2023/06/20 08:01:43;;;;;;;15.03;12.17;;;;;;;;;;4968957;28;20497;-61
2023/06/20 08:04:09;;;;;;;12.47;11.17;;;;;;;;;;4969887;28;20571;-61
2023/06/20 08:06:35;;;;;;;14.70;12.10;;;;;;;;;;4970035;28;20046;-61
2023/06/20 08:09:01;;;;;;;15.27;11.90;;;;;;;;;;4956242;28;20056;-61
2023/06/20 08:11:27;;;;;;;12.52;11.30;;;;;;;;;;4949401;29;20043;-61
2023/06/20 08:13:53;;;;;;;13.82;11.13;;;;;;;;;;4950530;29;20408;-61
2023/06/20 08:16:19;;;;;;;14.37;11.73;;;;;;;;;;4950159;29;20054;-61
2023/06/20 08:18:45;;;;;;;12.65;11.20;;;;;;;;;;4950459;29;20054;-61
2023/06/20 08:21:11;;;;;;;14.23;11.95;;;;;;;;;;4948810;28;20122;-61
2023/06/20 08:23:37;;;;;;;13.38;12.07;;;;;;;;;;4950109;29;20066;-61
2023/06/20 08:26:03;;;;;;;15.98;12.18;;;;;;;;;;4950224;28;20083;-63
2023/06/20 08:28:29;;;;;;;13.88;12.00;;;;;;;;;;4949173;29;20035;-62
2023/06/20 08:30:55;;;;;;;19.63;12.13;;;;;;;;;;4949921;28;20057;-62
2023/06/20 08:33:21;;;;;;;14.02;11.68;;;;;;;;;;4949842;29;20047;-62
2023/06/20 08:35:47;;;;;;;16.52;11.77;;;;;;;;;;4949715;29;20043;-62
2023/06/20 08:38:13;;;;;;;14.32;11.70;;;;;;;;;;4949981;29;20061;-62
2023/06/20 08:40:40;;;;;;;13.52;12.18;;;;;;;;;;4950018;29;20617;-62
2023/06/20 08:43:06;;;;;;;14.18;11.23;;;;;;;;;;4949925;29;20055;-62
2023/06/20 08:45:35;;;;;;;12.95;11.07;;;;;;;;;;4949339;29;20047;-62
2023/06/20 08:48:01;;;;;;;12.25;11.00;;;;;;;;;;4949860;29;20054;-62
2023/06/20 08:50:28;;;;;;;14.07;11.90;;;;;;;;;;4950115;29;20059;-62
2023/06/20 08:52:55;;;;;;;12.35;10.75;;;;;;;;;;4949664;29;20394;-62
2023/06/20 08:55:22;;;;;;;13.73;11.43;;;;;;;;;;4949518;29;20051;-62
2023/06/20 08:57:48;;;;;;;11.85;10.23;;;;;;;;;;4950248;29;20078;-62
2023/06/20 09:00:17;;;;;;;12.63;10.57;;;;;;;;;;4949927;29;20050;-62
2023/06/20 09:02:43;;;;;;;13.95;11.38;;;;;;;;;;4949610;29;20047;-62
2023/06/20 09:05:09;;;;;;;11.60;10.50;;;;;;;;;;4952481;28;20047;-63
2023/06/20 09:07:41;;;;;;;12.50;10.75;;;;;;;;;;4959000;28;20051;-63
2023/06/20 09:10:08;;;;;;;10.73;9.63;;;;;;;;;;4955562;28;20138;-63
2023/06/20 09:12:53;;;;;;;13.70;10.73;;;;;;;;;;4972548;28;20142;-63
2023/06/20 09:15:20;;;;;;;9.90;8.90;;;;;;;;;;4972822;28;20413;-63
2023/06/20 09:17:49;;;;;;;9.00;8.10;;;;;;;;;;4972780;28;20073;-63
2023/06/20 09:20:15;;;;;;;9.02;7.97;;;;;;;;;;4972239;28;20521;-63
2023/06/20 09:22:42;;;;;;;8.45;7.25;;;;;;;;;;4972551;28;20074;-63
2023/06/20 09:25:08;;;;;;;9.85;8.63;;;;;;;;;;4972466;28;20047;-63
2023/06/20 09:27:36;;;;;;;15.27;8.23;;;;;;;;;;4972176;28;20508;-63
2023/06/20 09:30:03;;;;;;;8.27;7.50;;;;;;;;;;4972065;28;20461;-63
2023/06/20 09:32:34;;;;;;;10.02;8.02;;;;;;;;;;4972515;28;20696;-63
2023/06/20 09:35:02;;;;;;;7.30;6.60;;;;;;;;;;4972274;28;20046;-63
2023/06/20 09:37:35;;;;;;;10.57;7.15;;;;;;;;;;4972344;28;20129;-63
2023/06/20 09:40:08;;;;;;;9.23;7.47;;;;;;;;;;4971826;28;20496;-64
2023/06/20 09:42:35;;;;;;;8.48;7.60;;;;;;;;;;4971990;28;20055;-64
2023/06/20 09:45:01;;;;;;;8.20;7.35;;;;;;;;;;4972186;28;20047;-63
2023/06/20 09:47:27;;;;;;;6.88;6.28;;;;;;;;;;4972382;28;20591;-63
2023/06/20 09:49:59;;;;;;;8.00;6.78;;;;;;;;;;4971812;28;20497;-63
2023/06/20 09:52:28;;;;;;;8.90;7.38;;;;;;;;;;4971661;28;20046;-63
2023/06/20 09:54:56;;;;;;;7.93;7.13;;;;;;;;;;4971914;28;20046;-63
2023/06/20 09:57:26;;;;;;;6.43;5.82;;;;;;;;;;4971868;28;20058;-63
2023/06/20 09:59:54;;;;;;;7.63;6.32;;;;;;;;;;4971711;28;20792;-63
2023/06/20 10:02:24;;;;;;;7.93;7.13;;;;;;;;;;4971747;28;20053;-63
2023/06/20 10:04:50;;;;;;;8.02;7.22;;;;;;;;;;4972014;28;20082;-63
2023/06/20 10:07:17;;;;;;;10.10;6.10;;;;;;;;;;4971444;28;20055;-63
2023/06/20 10:09:43;;;;;;;9.15;7.18;;;;;;;;;;4971941;28;20399;-63
2023/06/20 10:12:11;;;;;;;8.93;7.32;;;;;;;;;;4971832;28;20076;-63
2023/06/20 10:14:37;;;;;;;7.35;6.13;;;;;;;;;;4971151;28;20548;-64
2023/06/20 10:17:06;;;;;;;6.95;5.50;;;;;;;;;;4970944;28;20050;-64
2023/06/20 10:19:46;;;;;;;8.30;6.05;;;;;;;;;;4971696;28;20043;-63
2023/06/20 10:22:12;;;;;;;10.15;5.95;;;;;;;;;;4971496;28;20042;-63
2023/06/20 10:24:42;;;;;;;6.63;6.00;;;;;;;;;;4971513;28;20051;-63
2023/06/20 10:27:08;;;;;;;7.75;5.45;;;;;;;;;;4971106;28;20657;-63
2023/06/20 10:29:41;;;;;;;9.57;5.57;;;;;;;;;;4971820;28;20147;-64
2023/06/20 10:32:07;;;;;;;6.47;5.38;;;;;;;;;;4971545;28;20045;-64
2023/06/20 10:34:33;;;;;;;6.93;5.32;;;;;;;;;;4971481;28;20146;-63
2023/06/20 10:37:13;;;;;;;7.88;6.68;;;;;;;;;;4970776;28;20468;-64
2023/06/20 10:39:51;;;;;;;8.88;5.35;;;;;;;;;;4971407;28;20150;-63
2023/06/20 10:42:40;;;;;;;6.20;5.07;;;;;;;;;;4971509;28;20085;-63
2023/06/20 10:45:20;;;;;;;6.13;5.07;;;;;;;;;;4964754;28;20047;-64
2023/06/20 10:47:46;;;;;;;6.47;4.97;;;;;;;;;;4970622;28;20568;-64
2023/06/20 10:50:13;;;;;;;5.72;5.13;;;;;;;;;;4971114;28;20042;-63
2023/06/20 10:52:42;;;;;;;7.78;5.07;;;;;;;;;;4971026;28;20133;-63
2023/06/20 10:55:22;;;;;;;6.38;4.55;;;;;;;;;;4970811;28;20045;-64
2023/06/20 10:57:49;;;;;;;7.63;5.43;;;;;;;;;;4971280;28;20043;-64
2023/06/20 11:00:18;;;;;;;6.85;5.40;;;;;;;;;;4970326;28;20047;-64
2023/06/20 11:02:45;;;;;;;7.97;5.28;;;;;;;;;;4970592;28;20057;-64
2023/06/20 11:05:11;;;;;;;5.50;4.53;;;;;;;;;;4970735;28;20046;-64
2023/06/20 11:07:56;;;;;;;5.85;5.32;;;;;;;;;;4970832;28;20062;-64
2023/06/20 11:10:22;;;;;;;8.00;6.78;;;;;;;;;;4969657;28;20062;-64
2023/06/20 11:12:48;;;;;;;7.25;5.20;;;;;;;;;;4970424;28;20074;-64
2023/06/20 11:15:19;;;;;;;8.35;6.03;;;;;;;;;;4970582;28;20428;-64
2023/06/20 11:17:45;;;;;;;5.90;5.10;;;;;;;;;;4970488;28;20062;-64
2023/06/20 11:20:11;;;;;;;9.45;5.90;;;;;;;;;;4969824;28;20051;-64
2023/06/20 11:22:37;;;;;;;8.55;5.80;;;;;;;;;;4970533;28;20142;-63
2023/06/20 11:25:06;;;;;;;7.25;6.47;;;;;;;;;;4970083;28;20046;-64
2023/06/20 11:27:32;;;;;;;6.93;5.97;;;;;;;;;;4969485;28;20051;-64
2023/06/20 11:29:58;;;;;;;7.38;6.00;;;;;;;;;;4969555;28;20129;-64
2023/06/20 11:32:24;;;;;;;7.57;5.45;;;;;;;;;;4969804;28;20047;-64
2023/06/20 11:34:53;;;;;;;8.27;5.78;;;;;;;;;;4970446;28;20089;-64
2023/06/20 11:37:19;;;;;;;6.38;5.47;;;;;;;;;;4969974;28;20062;-64
2023/06/20 11:39:45;;;;;;;7.03;5.45;;;;;;;;;;4969747;28;20035;-62
2023/06/20 11:42:17;;;;;;;9.70;5.90;;;;;;;;;;4969951;28;20162;-63
2023/06/20 11:44:43;;;;;;;5.93;5.32;;;;;;;;;;4969745;28;20043;-61
2023/06/20 11:47:09;;;;;;;6.53;4.68;;;;;;;;;;4970020;28;21053;-61
2023/06/20 11:49:39;;;;;;;6.30;5.07;;;;;;;;;;4970159;28;20096;-63
2023/06/20 11:52:07;;;;;;;9.38;5.32;;;;;;;;;;4970184;28;20405;-63
2023/06/20 11:54:52;;;;;;;5.32;4.18;;;;;;;;;;4970462;28;20089;-63
2023/06/20 11:57:28;;;;;;;4.93;3.85;;;;;;;;;;4968874;28;20046;-63
2023/06/20 12:00:14;;;;;;;5.15;4.63;;;;;;;;;;4970486;28;20042;-64
2023/06/20 12:02:40;;;;;;;4.80;4.30;;;;;;;;;;4970390;28;20129;-63
2023/06/20 12:05:06;;;;;;;5.63;4.15;;;;;;;;;;4970150;28;20046;-64
2023/06/20 12:07:47;;;;;;;4.78;4.38;;;;;;;;;;4970269;28;20050;-62
2023/06/20 12:10:14;;;;;;;4.57;4.17;;;;;;;;;;4969420;28;20070;-63
2023/06/20 12:12:43;;;;;;;6.25;4.47;;;;;;;;;;4970241;28;20120;-63
2023/06/20 12:15:11;;;;;;;6.07;3.90;;;;;;;;;;4970132;28;20515;-63
2023/06/20 12:17:37;;;;;;;4.93;4.47;;;;;;;;;;4970268;28;20066;-63
2023/06/20 12:20:03;;;;;;;4.93;3.88;;;;;;;;;;4969843;28;20051;-63
2023/06/20 12:22:30;;;;;;;7.68;4.10;;;;;;;;;;4970023;28;20054;-63
2023/06/20 12:24:56;;;;;;;4.25;3.78;;;;;;;;;;4969704;28;20078;-63
2023/06/20 12:27:23;;;;;;;5.72;3.92;;;;;;;;;;4969775;28;20085;-63
2023/06/20 12:29:49;;;;;;;4.55;3.88;;;;;;;;;;4969580;28;20050;-63
2023/06/20 12:32:15;;;;;;;4.43;3.83;;;;;;;;;;4969823;28;20504;-63
2023/06/20 12:34:41;;;;;;;4.15;3.75;;;;;;;;;;4969446;28;20248;-63
2023/06/20 12:37:07;;;;;;;4.40;3.97;;;;;;;;;;4969418;28;20122;-63
2023/06/20 12:39:35;;;;;;;4.38;3.40;;;;;;;;;;4969449;28;20046;-63
2023/06/20 12:42:01;;;;;;;5.03;3.50;;;;;;;;;;4969913;28;20398;-63
2023/06/20 12:44:27;;;;;;;6.00;3.80;;;;;;;;;;4969728;28;20058;-62
2023/06/20 12:46:53;;;;;;;6.00;3.95;;;;;;;;;;4969260;28;20047;-63
2023/06/20 12:49:20;;;;;;;4.72;3.92;;;;;;;;;;4969645;28;20046;-63
2023/06/20 12:51:46;;;;;;;9.32;4.18;;;;;;;;;;4969818;28;20424;-62
2023/06/20 12:54:12;;;;;;;5.03;3.92;;;;;;;;;;4969561;28;20125;-63
2023/06/20 12:56:40;;;;;;;5.38;3.58;;;;;;;;;;4969601;28;20050;-62
2023/06/20 12:59:06;;;;;;;5.00;4.10;;;;;;;;;;4969550;28;20054;-62
2023/06/20 13:01:32;;;;;;;6.53;4.15;;;;;;;;;;4969413;28;20126;-63
2023/06/20 13:03:58;;;;;;;4.60;4.20;;;;;;;;;;4969565;28;20163;-62
2023/06/20 13:06:24;;;;;;;4.20;3.80;;;;;;;;;;4969625;28;20050;-63
2023/06/20 13:08:51;;;;;;;6.25;3.70;;;;;;;;;;4969923;28;20093;-62
2023/06/20 13:11:18;;;;;;;4.32;3.90;;;;;;;;;;4969499;28;20051;-62
2023/06/20 13:13:45;;;;;;;4.93;3.80;;;;;;;;;;4969189;28;20074;-63
2023/06/20 13:16:12;;;;;;;4.05;3.42;;;;;;;;;;4967859;28;20062;-63
2023/06/20 13:18:39;;;;;;;5.93;3.72;;;;;;;;;;4968635;28;20098;-63
2023/06/20 13:21:05;;;;;;;4.60;4.07;;;;;;;;;;4969473;28;20137;-63
2023/06/20 13:23:31;;;;;;;4.68;3.67;;;;;;;;;;4969537;28;20082;-63
2023/06/20 13:25:57;;;;;;;5.53;3.92;;;;;;;;;;4967944;28;20061;-63
2023/06/20 13:28:23;;;;;;;6.05;4.15;;;;;;;;;;4969138;28;20047;-63
2023/06/20 13:30:49;;;;;;;5.68;3.53;;;;;;;;;;4969578;28;20409;-63
2023/06/20 13:33:16;;;;;;;4.20;3.80;;;;;;;;;;4968487;28;20106;-63
2023/06/20 13:35:42;;;;;;;4.63;4.20;;;;;;;;;;4969072;28;20102;-63
2023/06/20 13:38:08;;;;;;;4.85;4.30;;;;;;;;;;4969269;28;20117;-63
2023/06/20 13:40:34;;;;;;;5.07;4.05;;;;;;;;;;4968036;28;20034;-63
2023/06/20 13:43:05;;;;;;;5.95;4.05;;;;;;;;;;4967560;28;20126;-63
2023/06/20 13:45:31;;;;;;;6.05;4.50;;;;;;;;;;4968553;28;20051;-63
2023/06/20 13:47:56;;;;;;;4.00;3.60;;;;;;;;;;4968757;28;20121;-63
2023/06/20 13:50:22;;;;;;;8.00;4.05;;;;;;;;;;4968601;28;20146;-62
2023/06/20 13:52:49;;;;;;;6.82;3.97;;;;;;;;;;4972047;28;20493;-62
2023/06/20 13:55:15;;;;;;;5.80;4.72;;;;;;;;;;4972188;28;20102;-62
2023/06/20 13:57:41;;;;;;;5.90;4.30;;;;;;;;;;4954253;28;20477;-63
2023/06/20 14:00:11;;;;;;;4.93;4.22;;;;;;;;;;4971691;28;20501;-63
2023/06/20 14:02:37;;;;;;;4.75;4.35;;;;;;;;;;4968949;28;20086;-63
2023/06/20 14:05:05;;;;;;;6.10;4.43;;;;;;;;;;4954886;28;20420;-63
2023/06/20 14:07:33;;;;;;;5.65;3.75;;;;;;;;;;4971462;28;20059;-63
2023/06/20 14:10:00;;;;;;;5.47;4.03;;;;;;;;;;4971955;28;20113;-63
2023/06/20 14:12:26;;;;;;;4.20;3.80;;;;;;;;;;4971504;28;20500;-63
2023/06/20 14:14:53;;;;;;;5.25;3.97;;;;;;;;;;4971915;28;20082;-63
2023/06/20 14:17:19;;;;;;;5.88;4.18;;;;;;;;;;4954175;28;20050;-63
2023/06/20 14:19:45;;;;;;;4.90;4.03;;;;;;;;;;4971466;28;20516;-63
2023/06/20 14:22:11;;;;;;;4.10;3.22;;;;;;;;;;4970796;28;20093;-63
2023/06/20 14:24:37;;;;;;;4.35;3.85;;;;;;;;;;4971671;28;20074;-63
2023/06/20 14:27:03;;;;;;;4.40;4.00;;;;;;;;;;4971373;28;20046;-63